Time;durP1;ratioP1;P1;durP2;ratioP2;P2;SDS_P1;SDS_P2;PMS_P1;PMS_P2;Temp;Humidity;BMP_temperature;BMP_pressure;BME280_temperature;BME280_humidity;BME280_pressure;Samples;Min_cycle;Max_cycle;Signal;HPM_P1;HPM_P2
2022/07/23 00:00:11;;;;;;;932.53;846.35;;;21.10;99.90;;;;;;5034534;28;20198;-81
2022/07/23 00:02:38;;;;;;;924.92;839.40;;;21.10;99.90;;;;;;5029105;28;20712;-82
2022/07/23 00:05:05;;;;;;;929.65;844.05;;;21.00;99.90;;;;;;5024284;28;20912;-79
2022/07/23 00:07:32;;;;;;;927.28;841.60;;;21.00;99.90;;;;;;5032240;28;20218;-80
2022/07/23 00:09:59;;;;;;;934.63;848.85;;;21.00;99.90;;;;;;5038904;28;20207;-79
2022/07/23 00:12:26;;;;;;;939.78;854.17;;;21.00;99.90;;;;;;5044250;28;20457;-79
2022/07/23 00:14:54;;;;;;;938.08;852.35;;;21.00;99.90;;;;;;5039262;28;20199;-79
2022/07/23 00:17:21;;;;;;;926.47;841.13;;;20.90;99.90;;;;;;5044902;28;20611;-78
2022/07/23 00:19:47;;;;;;;933.75;848.08;;;20.90;99.90;;;;;;5037312;28;20202;-77
2022/07/23 00:22:14;;;;;;;927.35;841.97;;;20.90;99.90;;;;;;5032827;28;20676;-78
2022/07/23 00:24:41;;;;;;;934.53;849.28;;;20.90;99.90;;;;;;5026407;28;20207;-77
2022/07/23 00:27:08;;;;;;;955.35;869.97;;;20.90;99.90;;;;;;5022482;28;20203;-76
2022/07/23 00:29:34;;;;;;;941.97;857.13;;;20.90;99.90;;;;;;5038700;28;20281;-79
2022/07/23 00:32:02;;;;;;;918.47;834.58;;;20.90;99.90;;;;;;5019578;28;20924;-77
2022/07/23 00:34:29;;;;;;;937.15;853.10;;;20.90;99.90;;;;;;5030949;28;20198;-77
2022/07/23 00:36:56;;;;;;;926.72;842.33;;;20.80;99.90;;;;;;5053078;28;20206;-77
2022/07/23 00:39:23;;;;;;;935.05;850.63;;;20.80;99.90;;;;;;5033663;28;20197;-77
2022/07/23 00:41:50;;;;;;;944.20;859.53;;;20.80;99.90;;;;;;5036223;28;20215;-77
2022/07/23 00:44:19;;;;;;;927.55;843.35;;;20.80;99.90;;;;;;5026332;28;20205;-77
2022/07/23 00:46:47;;;;;;;922.15;838.65;;;20.80;99.90;;;;;;5028494;28;20200;-79
2022/07/23 00:49:16;;;;;;;932.92;848.80;;;20.80;99.90;;;;;;5036643;28;20203;-77
2022/07/23 00:51:43;;;;;;;919.63;835.88;;;20.70;99.90;;;;;;5033052;28;20202;-79
2022/07/23 00:54:10;;;;;;;922.95;838.15;;;20.80;99.90;;;;;;5013900;28;20199;-78
2022/07/23 00:56:38;;;;;;;921.42;836.85;;;20.70;99.90;;;;;;5031164;28;20669;-77
2022/07/23 00:59:06;;;;;;;928.17;842.63;;;20.70;99.90;;;;;;5022664;28;20265;-78
2022/07/23 01:01:33;;;;;;;912.38;827.30;;;20.70;99.90;;;;;;5031346;28;20209;-80
2022/07/23 01:03:59;;;;;;;930.80;845.60;;;20.70;99.90;;;;;;5032285;28;20198;-77
2022/07/23 01:06:28;;;;;;;922.22;837.53;;;20.70;99.90;;;;;;5026894;28;20566;-77
2022/07/23 01:08:56;;;;;;;911.83;827.28;;;20.70;99.90;;;;;;5024449;28;20204;-78
2022/07/23 01:11:25;;;;;;;920.90;836.20;;;20.70;99.90;;;;;;5046635;28;20216;-77
2022/07/23 01:13:52;;;;;;;925.80;840.80;;;20.60;99.90;;;;;;5024982;28;20196;-78
2022/07/23 01:16:19;;;;;;;927.05;842.25;;;20.60;99.90;;;;;;5024399;28;20197;-78
2022/07/23 01:18:45;;;;;;;928.58;843.78;;;20.60;99.90;;;;;;5022066;28;20209;-78
2022/07/23 01:21:13;;;;;;;910.33;826.20;;;20.60;99.90;;;;;;5038050;28;20563;-78
2022/07/23 01:23:42;;;;;;;923.40;839.20;;;20.60;99.90;;;;;;5023435;28;20234;-78
2022/07/23 01:26:09;;;;;;;927.47;843.10;;;20.60;99.90;;;;;;5027040;28;20212;-78
2022/07/23 01:28:35;;;;;;;919.55;835.60;;;20.60;99.90;;;;;;5035975;28;20196;-79
2022/07/23 01:31:02;;;;;;;925.33;840.95;;;20.50;99.90;;;;;;5017328;28;20197;-78
2022/07/23 01:33:29;;;;;;;923.72;839.42;;;20.50;99.90;;;;;;5027741;28;20194;-79
2022/07/23 01:35:56;;;;;;;906.88;822.80;;;20.50;99.90;;;;;;5040537;28;20212;-78
2022/07/23 01:38:22;;;;;;;904.33;820.72;;;20.50;99.90;;;;;;5025763;28;20212;-79
2022/07/23 01:40:51;;;;;;;925.63;841.20;;;20.50;99.90;;;;;;5015318;28;20211;-78
2022/07/23 01:43:17;;;;;;;905.45;821.60;;;20.50;99.90;;;;;;5035008;28;20222;-78
2022/07/23 01:45:44;;;;;;;907.83;823.45;;;20.50;99.90;;;;;;5022934;28;20209;-78
2022/07/23 01:48:11;;;;;;;927.60;843.03;;;20.50;99.90;;;;;;5038805;28;20212;-79
2022/07/23 01:50:38;;;;;;;906.00;822.20;;;20.50;99.90;;;;;;5033710;28;20218;-78
2022/07/23 01:53:04;;;;;;;908.63;824.80;;;20.50;99.90;;;;;;5026165;28;20669;-78
2022/07/23 01:55:31;;;;;;;909.45;825.35;;;20.50;99.90;;;;;;5020133;28;20216;-77
2022/07/23 01:57:59;;;;;;;912.25;828.28;;;20.40;99.90;;;;;;5015841;28;20198;-79
2022/07/23 02:00:26;;;;;;;916.95;832.65;;;20.40;99.90;;;;;;5019577;28;20212;-78
2022/07/23 02:02:53;;;;;;;906.42;822.40;;;20.40;99.90;;;;;;5035083;28;20221;-79
2022/07/23 02:05:20;;;;;;;909.15;825.10;;;20.40;99.90;;;;;;5014682;28;20661;-78
2022/07/23 02:07:47;;;;;;;914.35;829.97;;;20.40;99.90;;;;;;5024541;28;20201;-78
2022/07/23 02:10:13;;;;;;;909.15;824.95;;;20.40;99.90;;;;;;5013371;28;20216;-80
2022/07/23 02:12:40;;;;;;;905.25;821.17;;;20.40;99.90;;;;;;5028625;28;20205;-78
2022/07/23 02:15:09;;;;;;;913.17;828.63;;;20.30;99.90;;;;;;5037264;28;20658;-79
2022/07/23 02:17:36;;;;;;;912.97;828.33;;;20.40;99.90;;;;;;5020813;28;20969;-78
2022/07/23 02:20:03;;;;;;;902.83;818.45;;;20.30;99.90;;;;;;5027225;28;20212;-79
2022/07/23 02:22:30;;;;;;;906.47;822.10;;;20.30;99.90;;;;;;5027592;28;20227;-79
2022/07/23 02:24:56;;;;;;;904.78;820.33;;;20.30;99.90;;;;;;5024722;28;20215;-80
2022/07/23 02:27:23;;;;;;;901.72;817.35;;;20.30;99.90;;;;;;5026996;28;20201;-80
2022/07/23 02:29:50;;;;;;;907.72;823.15;;;20.30;99.90;;;;;;5026355;28;20200;-80
2022/07/23 02:32:18;;;;;;;921.80;836.90;;;20.30;99.90;;;;;;5024573;28;20201;-80
2022/07/23 02:34:45;;;;;;;903.03;819.45;;;20.30;99.90;;;;;;5030989;28;20200;-80
2022/07/23 02:37:12;;;;;;;900.38;817.33;;;20.30;99.90;;;;;;5033355;28;20198;-80
2022/07/23 02:39:38;;;;;;;901.63;820.00;;;20.30;99.90;;;;;;5024515;28;20649;-80
2022/07/23 02:42:05;;;;;;;905.17;823.50;;;20.30;99.90;;;;;;5017655;28;20212;-81
2022/07/23 02:44:32;;;;;;;901.25;819.33;;;20.20;99.90;;;;;;5026214;28;20191;-80
2022/07/23 02:46:59;;;;;;;907.97;824.92;;;20.20;99.90;;;;;;5025486;28;20205;-80
2022/07/23 02:49:27;;;;;;;900.95;817.97;;;20.20;99.90;;;;;;5026170;28;20200;-81
2022/07/23 02:51:54;;;;;;;898.63;815.78;;;20.20;99.90;;;;;;5026115;28;20569;-81
2022/07/23 02:54:21;;;;;;;901.45;818.00;;;20.20;99.90;;;;;;5020524;28;20288;-81
2022/07/23 02:56:50;;;;;;;898.20;814.45;;;20.20;99.90;;;;;;5027078;28;20691;-81
2022/07/23 02:59:17;;;;;;;890.42;806.95;;;20.20;99.90;;;;;;5030297;28;20203;-81
2022/07/23 03:01:44;;;;;;;901.90;817.20;;;20.20;99.90;;;;;;5022939;28;20216;-81
2022/07/23 03:04:11;;;;;;;905.92;821.08;;;20.10;99.90;;;;;;5024982;28;20587;-81
2022/07/23 03:06:39;;;;;;;905.50;820.83;;;20.20;99.90;;;;;;5025089;28;20279;-81
2022/07/23 03:09:07;;;;;;;893.00;808.60;;;20.10;99.90;;;;;;5031119;28;20197;-81
2022/07/23 03:11:34;;;;;;;890.45;806.35;;;20.10;99.90;;;;;;5012937;28;20668;-81
2022/07/23 03:14:00;;;;;;;903.17;818.40;;;20.10;99.90;;;;;;5043884;28;20189;-81
2022/07/23 03:16:27;;;;;;;897.47;812.80;;;20.10;99.90;;;;;;5027785;28;20207;-81
2022/07/23 03:18:54;;;;;;;899.53;815.05;;;20.10;99.90;;;;;;5028837;28;20215;-81
2022/07/23 03:21:21;;;;;;;907.30;822.22;;;20.10;99.90;;;;;;5045450;28;20651;-81
2022/07/23 03:23:49;;;;;;;887.30;802.92;;;20.10;99.90;;;;;;5027133;28;20579;-81
2022/07/23 03:26:15;;;;;;;894.90;810.25;;;20.10;99.90;;;;;;5038503;28;20205;-81
2022/07/23 03:28:42;;;;;;;893.97;809.30;;;20.10;99.90;;;;;;5035786;28;20196;-81
2022/07/23 03:31:09;;;;;;;895.40;810.72;;;20.00;99.90;;;;;;5035225;28;20199;-81
2022/07/23 03:33:36;;;;;;;882.85;798.25;;;20.00;99.90;;;;;;5032125;28;20652;-81
2022/07/23 03:36:03;;;;;;;884.33;799.85;;;20.00;99.90;;;;;;5041000;28;20566;-81
2022/07/23 03:38:30;;;;;;;899.65;814.83;;;20.00;99.90;;;;;;5022299;28;20655;-81
2022/07/23 03:40:58;;;;;;;895.10;810.42;;;20.00;99.90;;;;;;5033492;28;20201;-81
2022/07/23 03:43:25;;;;;;;887.90;803.63;;;20.00;99.90;;;;;;5043101;28;20219;-82
2022/07/23 03:45:52;;;;;;;880.45;796.17;;;20.00;99.90;;;;;;5027177;28;20794;-81
2022/07/23 03:48:19;;;;;;;893.00;808.42;;;19.90;99.90;;;;;;5030523;28;20562;-81
2022/07/23 03:50:46;;;;;;;889.78;805.03;;;19.90;99.90;;;;;;5037150;28;20202;-80
2022/07/23 03:53:13;;;;;;;878.17;794.42;;;19.90;99.90;;;;;;5014909;28;20652;-81
2022/07/23 03:55:39;;;;;;;898.20;813.72;;;19.90;99.90;;;;;;5032410;28;20207;-81
2022/07/23 03:58:07;;;;;;;893.13;808.65;;;19.90;99.90;;;;;;5024570;28;20198;-80
2022/07/23 04:00:34;;;;;;;892.97;808.58;;;19.90;99.90;;;;;;5032968;28;20204;-81
2022/07/23 04:03:01;;;;;;;888.90;804.72;;;19.90;99.90;;;;;;5034424;28;20223;-81
2022/07/23 04:05:28;;;;;;;885.05;800.90;;;19.90;99.90;;;;;;5027171;28;20192;-80
2022/07/23 04:07:54;;;;;;;880.20;796.63;;;19.80;99.90;;;;;;5035557;28;20219;-81
2022/07/23 04:10:21;;;;;;;886.03;802.38;;;19.90;99.90;;;;;;5031168;28;20230;-81
2022/07/23 04:12:48;;;;;;;884.42;800.55;;;19.80;99.90;;;;;;5029802;28;20692;-80
2022/07/23 04:15:16;;;;;;;883.88;799.90;;;19.80;99.90;;;;;;5035651;28;20220;-81
2022/07/23 04:17:44;;;;;;;885.92;801.95;;;19.80;99.90;;;;;;5037862;28;20290;-80
2022/07/23 04:20:12;;;;;;;895.90;811.47;;;19.80;99.90;;;;;;5030402;28;20232;-80
2022/07/23 04:22:39;;;;;;;889.95;805.58;;;19.80;99.90;;;;;;5026988;28;20195;-80
2022/07/23 04:25:06;;;;;;;883.33;798.85;;;19.80;99.90;;;;;;5025929;28;20197;-80
2022/07/23 04:27:34;;;;;;;885.53;801.45;;;19.80;99.90;;;;;;5016924;28;20204;-80
2022/07/23 04:30:00;;;;;;;877.40;793.08;;;19.80;99.90;;;;;;5041915;28;20203;-80
2022/07/23 04:32:28;;;;;;;886.33;801.75;;;19.80;99.90;;;;;;5020734;28;20251;-80
2022/07/23 04:34:55;;;;;;;878.17;794.22;;;19.80;99.90;;;;;;5031732;28;20206;-80
2022/07/23 04:37:22;;;;;;;877.53;793.60;;;19.80;99.90;;;;;;5026060;28;20200;-80
2022/07/23 04:39:49;;;;;;;889.92;805.58;;;19.80;99.90;;;;;;5022896;28;20196;-81
2022/07/23 04:42:15;;;;;;;877.25;793.00;;;19.80;99.90;;;;;;5028387;28;20201;-79
2022/07/23 04:44:42;;;;;;;871.85;787.90;;;19.80;99.90;;;;;;5032638;28;20235;-80
2022/07/23 04:47:10;;;;;;;884.33;799.83;;;19.80;99.90;;;;;;5020261;28;20208;-80
2022/07/23 04:49:38;;;;;;;870.10;786.15;;;19.70;99.90;;;;;;5022508;28;20659;-81
2022/07/23 04:52:05;;;;;;;877.17;792.97;;;19.70;99.90;;;;;;5027559;28;20200;-80
2022/07/23 04:54:32;;;;;;;851.10;767.75;;;19.80;99.90;;;;;;5022363;28;20207;-81
2022/07/23 04:56:58;;;;;;;877.75;793.65;;;19.70;99.90;;;;;;5020736;28;20192;-80
2022/07/23 04:59:25;;;;;;;886.25;801.88;;;19.70;99.90;;;;;;5025506;28;20670;-80
2022/07/23 05:01:52;;;;;;;865.45;781.67;;;19.70;99.90;;;;;;5027466;28;20223;-80
2022/07/23 05:04:19;;;;;;;860.08;776.33;;;19.70;99.90;;;;;;5026131;28;20238;-80
2022/07/23 05:06:47;;;;;;;879.72;795.15;;;19.70;99.90;;;;;;5038748;28;20188;-81
2022/07/23 05:09:14;;;;;;;864.15;780.30;;;19.80;99.90;;;;;;5017332;28;20584;-81
2022/07/23 05:11:41;;;;;;;880.17;795.78;;;19.70;99.90;;;;;;5020162;28;20204;-81
2022/07/23 05:14:08;;;;;;;880.88;796.20;;;19.70;99.90;;;;;;5025596;28;20219;-81
2022/07/23 05:16:34;;;;;;;880.75;796.50;;;19.70;99.90;;;;;;5029806;28;20196;-82
2022/07/23 05:19:01;;;;;;;882.38;797.92;;;19.80;99.90;;;;;;5030163;28;20192;-82
2022/07/23 05:21:28;;;;;;;868.90;784.97;;;19.80;99.90;;;;;;5039728;28;20479;-81
2022/07/23 05:23:56;;;;;;;885.83;801.33;;;19.80;99.90;;;;;;5029592;28;20307;-82
2022/07/23 05:26:23;;;;;;;879.10;794.67;;;19.80;99.90;;;;;;5032558;28;20192;-81
2022/07/23 05:28:49;;;;;;;868.83;784.75;;;19.80;99.90;;;;;;5030119;28;20188;-81
2022/07/23 05:31:16;;;;;;;878.60;794.13;;;19.80;99.90;;;;;;5029687;28;20207;-82
2022/07/23 05:33:43;;;;;;;873.00;788.83;;;19.90;99.90;;;;;;5026776;28;20534;-82
2022/07/23 05:36:10;;;;;;;883.08;798.60;;;19.80;99.90;;;;;;5034663;28;20289;-82
2022/07/23 05:38:37;;;;;;;862.20;778.42;;;19.90;99.90;;;;;;5024517;28;20193;-82
2022/07/23 05:41:06;;;;;;;880.08;795.80;;;19.90;99.90;;;;;;5034513;28;20359;-81
2022/07/23 05:43:33;;;;;;;881.90;797.42;;;19.90;99.90;;;;;;5033801;28;20711;-82
2022/07/23 05:45:59;;;;;;;881.10;796.83;;;20.10;99.90;;;;;;5033937;28;20249;-81
2022/07/23 05:48:26;;;;;;;892.10;807.03;;;20.20;99.90;;;;;;5027933;28;20200;-82
2022/07/23 05:50:53;;;;;;;903.97;818.72;;;20.30;99.90;;;;;;5020782;28;20211;-81
2022/07/23 05:53:20;;;;;;;909.78;824.38;;;20.50;99.90;;;;;;5032714;28;20551;-81
2022/07/23 05:55:46;;;;;;;908.92;823.75;;;20.70;99.90;;;;;;5022099;28;20206;-81
2022/07/23 05:58:14;;;;;;;921.65;835.95;;;20.80;99.90;;;;;;5030547;28;20203;-81
2022/07/23 06:00:41;;;;;;;912.67;827.08;;;20.90;99.90;;;;;;5041087;28;20198;-81
2022/07/23 06:03:08;;;;;;;928.10;842.10;;;21.10;99.90;;;;;;5032758;28;20688;-81
2022/07/23 06:05:35;;;;;;;929.92;843.92;;;21.20;99.90;;;;;;5030369;28;20589;-82
2022/07/23 06:08:01;;;;;;;937.65;851.85;;;21.30;99.90;;;;;;5019724;28;20210;-82
2022/07/23 06:10:28;;;;;;;947.72;861.38;;;21.50;99.90;;;;;;5025178;28;20200;-82
2022/07/23 06:12:55;;;;;;;950.67;864.42;;;21.50;99.90;;;;;;5025766;28;20553;-81
2022/07/23 06:15:23;;;;;;;952.70;866.50;;;21.70;99.90;;;;;;5020136;28;20195;-81
2022/07/23 06:17:50;;;;;;;961.83;875.65;;;21.80;99.90;;;;;;5027530;28;20234;-81
2022/07/23 06:20:17;;;;;;;970.83;884.08;;;21.80;99.90;;;;;;5026462;28;20218;-80
2022/07/23 06:22:43;;;;;;;970.10;883.20;;;22.00;99.90;;;;;;5022431;28;20200;-82
2022/07/23 06:25:10;;;;;;;979.00;892.10;;;22.00;99.90;;;;;;5015698;28;22515;-81
2022/07/23 06:27:37;;;;;;;967.40;882.25;;;22.10;99.90;;;;;;5024722;28;20659;-80
2022/07/23 06:30:05;;;;;;;986.28;900.17;;;22.20;99.90;;;;;;5029393;28;20304;-80
2022/07/23 06:32:33;;;;;;;987.75;901.63;;;22.30;99.90;;;;;;5024522;28;20203;-80
2022/07/23 06:35:00;;;;;;;995.42;909.97;;;22.40;99.90;;;;;;5028962;28;20208;-80
2022/07/23 06:37:27;;;;;;;996.85;912.45;;;22.40;99.90;;;;;;5031636;28;20196;-80
2022/07/23 06:39:53;;;;;;;1005.72;920.00;;;22.50;99.90;;;;;;5021396;28;20197;-80
2022/07/23 06:42:20;;;;;;;1002.58;915.42;;;22.60;99.90;;;;;;5036115;28;20199;-81
2022/07/23 06:44:47;;;;;;;991.97;904.78;;;22.60;99.90;;;;;;5039824;28;20219;-81
2022/07/23 06:47:14;;;;;;;994.47;907.72;;;22.60;99.90;;;;;;5024096;28;20782;-80
2022/07/23 06:49:42;;;;;;;1021.03;934.95;;;22.70;99.90;;;;;;5024812;28;20192;-81
2022/07/23 06:52:08;;;;;;;1004.80;918.42;;;22.80;99.90;;;;;;5021349;28;20210;-78
2022/07/23 06:54:35;;;;;;;1020.03;934.10;;;22.90;99.90;;;;;;5021181;28;20215;-79
2022/07/23 06:57:02;;;;;;;1020.15;936.90;;;23.00;99.90;;;;;;5012513;28;20200;-79
2022/07/23 06:59:29;;;;;;;1018.78;938.08;;;23.00;99.90;;;;;;5016381;28;20207;-78
2022/07/23 07:01:57;;;;;;;1016.50;935.40;;;23.10;99.90;;;;;;5026748;28;20231;-77
2022/07/23 07:04:24;;;;;;;1012.92;931.45;;;23.10;99.90;;;;;;5032826;28;20227;-78
2022/07/23 07:06:52;;;;;;;1032.85;950.00;;;23.20;99.90;;;;;;5026037;28;20222;-78
2022/07/23 07:09:18;;;;;;;1043.10;959.20;;;23.30;99.90;;;;;;5026360;28;20682;-78
2022/07/23 07:11:45;;;;;;;1041.68;957.38;;;23.30;99.90;;;;;;5031320;28;20584;-78
2022/07/23 07:14:12;;;;;;;1037.30;951.20;;;23.40;99.90;;;;;;5022346;28;20216;-78
2022/07/23 07:16:39;;;;;;;1029.03;943.73;;;23.40;99.90;;;;;;5021269;28;20962;-75
2022/07/23 07:19:05;;;;;;;1034.90;948.63;;;23.50;99.90;;;;;;5032798;28;20476;-79
2022/07/23 07:21:32;;;;;;;1047.97;962.43;;;23.60;99.90;;;;;;5041131;28;20441;-77
2022/07/23 07:24:00;;;;;;;1046.07;959.90;;;23.60;99.90;;;;;;5020114;28;20486;-78
2022/07/23 07:26:27;;;;;;;1055.97;971.87;;;23.70;99.90;;;;;;5013982;28;20457;-78
2022/07/23 07:28:54;;;;;;;1046.93;960.57;;;23.70;99.90;;;;;;5031767;28;20446;-78
2022/07/23 07:31:20;;;;;;;1050.60;963.90;;;23.80;99.90;;;;;;5019999;28;20474;-79
2022/07/23 07:33:47;;;;;;;1054.47;967.97;;;23.80;99.90;;;;;;5023397;28;20443;-78
2022/07/23 07:36:14;;;;;;;1057.90;970.60;;;23.80;99.90;;;;;;5029220;28;20467;-78
2022/07/23 07:38:41;;;;;;;1059.43;971.33;;;23.90;99.90;;;;;;5029295;28;20463;-78
2022/07/23 07:41:10;;;;;;;1041.20;952.50;;;24.00;99.90;;;;;;5025985;28;20448;-78
2022/07/23 07:43:36;;;;;;;1066.70;976.57;;;24.00;99.90;;;;;;5021660;28;20702;-79
2022/07/23 07:46:03;;;;;;;1059.57;969.30;;;24.00;99.90;;;;;;5024918;28;20950;-80
2022/07/23 07:48:30;;;;;;;1064.60;974.17;;;24.00;99.90;;;;;;5028021;28;20546;-79
2022/07/23 07:50:57;;;;;;;1062.33;972.47;;;24.10;99.90;;;;;;5046287;28;20437;-80
2022/07/23 07:53:24;;;;;;;1063.30;973.20;;;24.10;99.90;;;;;;5021814;28;20461;-78
2022/07/23 07:55:51;;;;;;;1062.35;972.03;;;24.00;99.90;;;;;;5025321;28;21063;-79
2022/07/23 07:58:19;;;;;;;1049.13;959.35;;;23.90;99.90;;;;;;5025552;28;20221;-79
2022/07/23 08:00:46;;;;;;;1050.20;960.40;;;23.70;99.90;;;;;;5033203;28;20207;-79
2022/07/23 08:03:12;;;;;;;1043.43;954.07;;;23.50;99.90;;;;;;5021039;28;20229;-79
2022/07/23 08:05:39;;;;;;;1030.20;941.25;;;23.40;99.90;;;;;;5024630;28;20505;-78
2022/07/23 08:08:06;;;;;;;1044.43;954.85;;;23.30;99.90;;;;;;5030775;28;20192;-79
2022/07/23 08:10:33;;;;;;;1023.33;934.10;;;23.10;99.90;;;;;;5035448;28;20199;-79
2022/07/23 08:13:01;;;;;;;1026.80;937.42;;;23.00;99.90;;;;;;5030851;28;20207;-80
2022/07/23 08:15:30;;;;;;;1008.72;920.58;;;22.90;99.90;;;;;;5037553;28;20239;-78
2022/07/23 08:17:58;;;;;;;1005.15;916.95;;;22.80;99.90;;;;;;5031319;28;20209;-79
2022/07/23 08:20:26;;;;;;;1019.00;930.40;;;22.80;99.90;;;;;;5031194;28;20202;-79
2022/07/23 08:22:57;;;;;;;1009.70;921.55;;;22.90;99.90;;;;;;5029625;28;20196;-79
2022/07/23 08:25:26;;;;;;;1017.92;929.28;;;23.00;99.90;;;;;;5029464;28;20220;-80
2022/07/23 08:27:54;;;;;;;1033.43;944.25;;;23.20;99.90;;;;;;5029771;28;21192;-78
2022/07/23 08:30:21;;;;;;;1019.65;930.97;;;23.40;99.90;;;;;;5035241;28;20202;-78
2022/07/23 08:32:55;;;;;;;1032.10;943.00;;;23.60;99.90;;;;;;5029060;28;20683;-78
2022/07/23 08:35:28;;;;;;;1043.17;953.80;;;23.80;99.90;;;;;;5027540;28;20677;-80
2022/07/23 08:37:55;;;;;;;1042.33;952.83;;;24.00;99.90;;;;;;5029294;28;20442;-79
2022/07/23 08:40:23;;;;;;;1068.13;978.17;;;24.10;99.90;;;;;;5020909;28;20428;-79
2022/07/23 08:42:51;;;;;;;1058.67;969.40;;;24.20;99.90;;;;;;5040701;28;20462;-80
2022/07/23 08:45:20;;;;;;;1050.77;961.73;;;24.10;99.90;;;;;;5032807;28;20485;-78
2022/07/23 08:47:50;;;;;;;1061.20;972.80;;;24.10;99.90;;;;;;5025336;28;20454;-77
2022/07/23 08:50:18;;;;;;;1067.17;978.00;;;24.10;99.90;;;;;;5028837;28;20503;-77
2022/07/23 08:52:45;;;;;;;1065.33;975.23;;;24.10;99.90;;;;;;5036118;28;20454;-78
2022/07/23 08:55:13;;;;;;;1071.53;981.15;;;24.10;99.90;;;;;;5022237;28;20468;-79
2022/07/23 08:57:40;;;;;;;1065.77;976.23;;;24.10;99.90;;;;;;5028039;28;20200;-80
2022/07/23 09:00:08;;;;;;;1064.07;974.70;;;24.10;99.90;;;;;;5026238;28;20454;-79
2022/07/23 09:02:40;;;;;;;1060.40;970.97;;;24.00;99.90;;;;;;5021176;28;20924;-79
2022/07/23 09:05:08;;;;;;;1049.13;960.23;;;24.00;99.90;;;;;;5021552;28;20481;-78
2022/07/23 09:07:36;;;;;;;1070.30;979.87;;;24.00;99.90;;;;;;5042086;28;20828;-80
2022/07/23 09:10:09;;;;;;;1056.23;966.57;;;24.00;99.90;;;;;;5030495;28;20458;-80
2022/07/23 09:12:36;;;;;;;1046.43;957.13;;;24.00;99.90;;;;;;5032751;28;20440;-79
2022/07/23 09:15:07;;;;;;;1056.67;966.83;;;23.90;99.90;;;;;;5021247;28;21013;-80
2022/07/23 09:17:43;;;;;;;1051.90;962.15;;;24.00;99.90;;;;;;5024127;28;20937;-80
2022/07/23 09:20:12;;;;;;;1042.87;953.53;;;24.00;99.90;;;;;;5025523;28;20580;-78
2022/07/23 09:22:46;;;;;;;1053.80;964.13;;;24.10;99.90;;;;;;5032735;28;20447;-80
2022/07/23 09:25:16;;;;;;;1061.00;971.23;;;24.20;99.90;;;;;;5025564;28;20539;-79
2022/07/23 09:27:49;;;;;;;1058.33;968.43;;;24.20;99.90;;;;;;5034350;28;20837;-79
2022/07/23 09:30:16;;;;;;;1049.80;960.40;;;24.10;99.90;;;;;;5023711;28;20459;-81
2022/07/23 09:32:43;;;;;;;1050.60;961.10;;;24.00;99.90;;;;;;5039280;28;20458;-80
2022/07/23 09:35:10;;;;;;;1060.15;970.38;;;24.00;99.90;;;;;;5033135;28;20473;-79
2022/07/23 09:37:37;;;;;;;1058.93;969.03;;;24.00;99.90;;;;;;5033948;28;20196;-81
2022/07/23 09:40:08;;;;;;;1052.47;962.90;;;24.00;99.90;;;;;;5018379;28;20461;-81
2022/07/23 09:42:35;;;;;;;1052.40;962.70;;;24.10;99.90;;;;;;5036694;28;20458;-79
2022/07/23 09:45:03;;;;;;;1063.80;974.13;;;24.20;99.90;;;;;;5035742;28;20569;-79
2022/07/23 09:47:32;;;;;;;1052.37;962.90;;;24.20;99.90;;;;;;5034640;28;20443;-79
2022/07/23 09:50:01;;;;;;;1067.53;977.87;;;24.20;99.90;;;;;;5049440;28;20442;-81
2022/07/23 09:52:29;;;;;;;1052.50;963.23;;;24.20;99.90;;;;;;5027969;28;20987;-79
2022/07/23 09:55:00;;;;;;;1055.03;965.80;;;24.20;99.90;;;;;;5020174;28;20465;-80
2022/07/23 09:57:29;;;;;;;1078.07;987.97;;;24.20;99.90;;;;;;5037566;28;20462;-79
2022/07/23 09:59:59;;;;;;;1065.97;975.97;;;24.20;99.90;;;;;;5034883;28;20461;-79
2022/07/23 10:02:27;;;;;;;1078.00;987.63;;;24.30;99.90;;;;;;5024437;28;20545;-80
2022/07/23 10:04:55;;;;;;;1070.87;981.23;;;24.30;99.90;;;;;;5022233;28;20475;-79
2022/07/23 10:07:23;;;;;;;1062.30;973.60;;;24.30;99.90;;;;;;5041425;28;20438;-80
2022/07/23 10:09:52;;;;;;;1069.97;981.07;;;24.30;99.90;;;;;;5028686;28;20469;-79
2022/07/23 10:12:25;;;;;;;1062.93;973.63;;;24.30;99.90;;;;;;5031211;28;20771;-79
2022/07/23 10:14:53;;;;;;;1076.90;986.93;;;24.30;99.90;;;;;;5033242;28;20451;-79
2022/07/23 10:17:20;;;;;;;1067.10;976.83;;;24.40;99.90;;;;;;5029451;28;20460;-78
2022/07/23 10:19:48;;;;;;;1082.60;991.83;;;24.40;99.90;;;;;;5026514;28;20454;-78
2022/07/23 10:22:21;;;;;;;1064.13;976.03;;;24.30;99.90;;;;;;5035977;28;20542;-79
2022/07/23 10:24:59;;;;;;;1064.10;976.47;;;24.30;99.90;;;;;;5027796;28;20490;-78
2022/07/23 10:27:52;;;;;;;1069.43;982.43;;;24.30;99.90;;;;;;5025977;28;20457;-77
2022/07/23 10:30:31;;;;;;;1049.97;964.03;;;24.30;99.90;;;;;;5013322;28;20550;-79
2022/07/23 10:33:12;;;;;;;1061.00;974.40;;;24.30;99.90;;;;;;5032755;28;20457;-79
2022/07/23 10:35:47;;;;;;;1043.30;957.43;;;24.30;99.90;;;;;;5028248;28;21020;-79
2022/07/23 10:38:19;;;;;;;1053.13;967.53;;;24.20;99.90;;;;;;5033893;28;20803;-80
2022/07/23 10:40:57;;;;;;;1058.33;972.67;;;24.20;99.90;;;;;;5016667;28;20467;-79
2022/07/23 10:43:24;;;;;;;1060.97;975.27;;;24.20;99.90;;;;;;5025325;28;20473;-77
2022/07/23 10:45:53;;;;;;;1046.90;961.53;;;24.20;99.90;;;;;;5024711;28;20466;-77
2022/07/23 10:48:22;;;;;;;1059.53;973.23;;;24.20;99.90;;;;;;5037152;28;20945;-81
2022/07/23 10:51:09;;;;;;;1051.77;965.17;;;24.20;99.90;;;;;;5019154;28;20529;-78
2022/07/23 10:53:56;;;;;;;1047.73;961.63;;;24.20;99.90;;;;;;5032388;28;20806;-80
2022/07/23 10:56:56;;;;;;;1048.03;962.73;;;24.20;99.90;;;;;;5020606;28;20575;-79
2022/07/23 10:59:23;;;;;;;1044.27;958.87;;;24.20;99.90;;;;;;5014957;28;20462;-79
2022/07/23 11:01:52;;;;;;;1053.33;968.83;;;24.20;99.90;;;;;;5030716;28;22025;-79
2022/07/23 11:04:19;;;;;;;1048.40;965.03;;;24.20;99.90;;;;;;5036645;28;20466;-79
2022/07/23 11:07:08;;;;;;;1056.33;972.63;;;24.20;99.90;;;;;;5029297;28;20482;-78
2022/07/23 11:09:40;;;;;;;1052.33;969.13;;;24.20;99.90;;;;;;5017205;28;20938;-78
2022/07/23 11:12:36;;;;;;;1041.80;958.63;;;24.10;99.90;;;;;;5025003;28;20459;-80
2022/07/23 11:15:05;;;;;;;1040.53;957.23;;;24.10;99.90;;;;;;5022927;28;20940;-78
2022/07/23 11:17:35;;;;;;;1046.43;962.23;;;24.10;99.90;;;;;;5024351;28;20455;-80
2022/07/23 11:20:17;;;;;;;1043.30;959.20;;;24.10;99.90;;;;;;5028245;28;20458;-79
2022/07/23 11:22:50;;;;;;;1046.13;962.23;;;24.10;99.90;;;;;;5025489;28;20465;-79
2022/07/23 11:25:36;;;;;;;1047.23;963.00;;;24.10;99.90;;;;;;5027207;28;20485;-79
2022/07/23 11:28:16;;;;;;;1049.37;965.07;;;24.10;99.90;;;;;;5020937;28;20957;-79
2022/07/23 11:30:45;;;;;;;1053.73;969.20;;;24.20;99.90;;;;;;5030059;28;20547;-80
2022/07/23 11:33:22;;;;;;;1050.57;966.37;;;24.10;99.90;;;;;;5019261;28;20465;-78
2022/07/23 11:36:02;;;;;;;1044.53;960.63;;;24.10;99.90;;;;;;5020189;28;20477;-78
2022/07/23 11:38:32;;;;;;;1038.00;954.63;;;24.10;99.90;;;;;;5027995;28;20458;-77
2022/07/23 11:40:59;;;;;;;1053.20;969.37;;;24.10;99.90;;;;;;5030903;28;20464;-79
2022/07/23 11:43:26;;;;;;;1050.93;967.53;;;24.10;99.90;;;;;;5022864;28;20442;-79
2022/07/23 11:45:54;;;;;;;1046.30;963.03;;;24.10;99.90;;;;;;5025398;28;20861;-79
2022/07/23 11:48:24;;;;;;;1053.23;968.67;;;24.10;99.90;;;;;;5025444;28;20554;-78
2022/07/23 11:50:52;;;;;;;1062.17;978.07;;;24.00;99.90;;;;;;5030483;28;20833;-78
2022/07/23 11:53:27;;;;;;;1055.83;971.23;;;24.00;99.90;;;;;;5035486;28;20828;-80
2022/07/23 11:55:54;;;;;;;1050.37;965.80;;;24.00;99.90;;;;;;5032811;28;20488;-80
2022/07/23 11:58:22;;;;;;;1044.50;960.30;;;24.00;99.90;;;;;;5021074;28;20458;-79
2022/07/23 12:00:50;;;;;;;1037.40;953.47;;;24.00;99.90;;;;;;5026480;28;20473;-77
2022/07/23 12:03:17;;;;;;;1044.67;960.17;;;24.00;99.90;;;;;;5027370;28;20868;-77
2022/07/23 12:05:45;;;;;;;1049.10;964.60;;;24.00;99.90;;;;;;5020872;28;20485;-79
2022/07/23 12:08:12;;;;;;;1058.47;973.77;;;24.00;99.90;;;;;;5041349;28;20445;-79